sensor_id;sensor_type;location;lat;lon;timestamp;pressure;altitude;pressure_sealevel;temperature;humidity
62697;BME280;48761;42.680;23.312;2022-08-03T00:00:58;94885.78;;;29.94;33.92
62697;BME280;48761;42.680;23.312;2022-08-03T00:03:24;94887.47;;;29.95;34.35
62697;BME280;48761;42.680;23.312;2022-08-03T00:05:50;94887.47;;;29.95;34.57
62697;BME280;48761;42.680;23.312;2022-08-03T00:08:17;94881.97;;;29.95;34.30
62697;BME280;48761;42.680;23.312;2022-08-03T00:10:43;94877.56;;;29.94;34.34
62697;BME280;48761;42.680;23.312;2022-08-03T00:13:09;94882.81;;;29.95;34.17
62697;BME280;48761;42.680;23.312;2022-08-03T00:15:35;94881.97;;;29.95;34.72
62697;BME280;48761;42.680;23.312;2022-08-03T00:18:01;94881.13;;;29.94;34.58
62697;BME280;48761;42.680;23.312;2022-08-03T00:20:27;94876.50;;;29.95;34.41
62697;BME280;48761;42.680;23.312;2022-08-03T00:22:52;94877.81;;;29.92;34.36
62697;BME280;48761;42.680;23.312;2022-08-03T00:25:18;94877.81;;;29.92;34.27
62697;BME280;48761;42.680;23.312;2022-08-03T00:27:44;94886.84;;;29.93;34.36
62697;BME280;48761;42.680;23.312;2022-08-03T00:30:10;94882.44;;;29.92;34.37
62697;BME280;48761;42.680;23.312;2022-08-03T00:32:36;94882.44;;;29.92;34.54
62697;BME280;48761;42.680;23.312;2022-08-03T00:35:02;94878.03;;;29.91;34.56
62697;BME280;48761;42.680;23.312;2022-08-03T00:37:28;94873.63;;;29.90;34.12
62697;BME280;48761;42.680;23.312;2022-08-03T00:39:54;94876.34;;;29.90;34.41
62697;BME280;48761;42.680;23.312;2022-08-03T00:42:20;94877.41;;;29.88;34.51
62697;BME280;48761;42.680;23.312;2022-08-03T00:44:46;94880.38;;;29.87;34.36
62697;BME280;48761;42.680;23.312;2022-08-03T00:47:12;94882.88;;;29.88;34.30
62697;BME280;48761;42.680;23.312;2022-08-03T00:49:38;94880.38;;;29.87;34.40
62697;BME280;48761;42.680;23.312;2022-08-03T00:52:05;94875.75;;;29.87;34.58
62697;BME280;48761;42.680;23.312;2022-08-03T00:54:32;94878.03;;;29.91;34.23
62697;BME280;48761;42.680;23.312;2022-08-03T00:56:58;94881.97;;;29.95;34.16
62697;BME280;48761;42.680;23.312;2022-08-03T00:59:25;94877.72;;;29.99;34.09
62697;BME280;48761;42.680;23.312;2022-08-03T01:01:52;94877.25;;;30.02;33.90
62697;BME280;48761;42.680;23.312;2022-08-03T01:04:18;94870.72;;;30.03;34.20
62697;BME280;48761;42.680;23.312;2022-08-03T01:07:13;94875.13;;;30.04;34.10
62697;BME280;48761;42.680;23.312;2022-08-03T01:12:29;94871.78;;;30.02;34.29
62697;BME280;48761;42.680;23.312;2022-08-03T01:18:13;94867.13;;;30.03;33.98
62697;BME280;48761;42.680;23.312;2022-08-03T01:20:46;94864.59;;;30.01;34.13
62697;BME280;48761;42.680;23.312;2022-08-03T01:26:19;94860.91;;;29.95;33.75
62697;BME280;48761;42.680;23.312;2022-08-03T01:28:58;94862.66;;;29.90;34.28
62697;BME280;48761;42.680;23.312;2022-08-03T01:31:45;94862.06;;;29.87;34.54
62697;BME280;48761;42.680;23.312;2022-08-03T01:34:18;94871.94;;;29.88;34.17
62697;BME280;48761;42.680;23.312;2022-08-03T01:36:50;94869.44;;;29.87;34.20
62697;BME280;48761;42.680;23.312;2022-08-03T01:39:17;94867.47;;;29.75;34.61
62697;BME280;48761;42.680;23.312;2022-08-03T01:41:49;94869.53;;;29.80;34.25
62697;BME280;48761;42.680;23.312;2022-08-03T01:44:19;94871.63;;;29.78;34.31
62697;BME280;48761;42.680;23.312;2022-08-03T01:46:47;94872.97;;;29.75;34.55
62697;BME280;48761;42.680;23.312;2022-08-03T01:49:14;94869.59;;;29.73;34.69
62697;BME280;48761;42.680;23.312;2022-08-03T01:51:41;94869.81;;;29.72;35.01
62697;BME280;48761;42.680;23.312;2022-08-03T01:54:12;94868.97;;;29.71;34.49
62697;BME280;48761;42.680;23.312;2022-08-03T01:56:39;94874.47;;;29.71;34.47
62697;BME280;48761;42.680;23.312;2022-08-03T01:59:07;94878.25;;;29.70;34.83
62697;BME280;48761;42.680;23.312;2022-08-03T02:01:35;94878.47;;;29.69;34.89
62697;BME280;48761;42.680;23.312;2022-08-03T02:04:02;94878.47;;;29.69;34.90
62697;BME280;48761;42.680;23.312;2022-08-03T02:06:31;94879.31;;;29.69;34.66
62697;BME280;48761;42.680;23.312;2022-08-03T02:08:59;94879.53;;;29.68;34.57
62697;BME280;48761;42.680;23.312;2022-08-03T02:11:27;94880.59;;;29.67;34.92
62697;BME280;48761;42.680;23.312;2022-08-03T02:13:57;94873.44;;;29.65;35.12
62697;BME280;48761;42.680;23.312;2022-08-03T02:16:25;94873.91;;;29.62;35.24
62697;BME280;48761;42.680;23.312;2022-08-03T02:18:54;94872.81;;;29.63;34.68
62697;BME280;48761;42.680;23.312;2022-08-03T02:21:21;94884.03;;;29.62;34.90
62697;BME280;48761;42.680;23.312;2022-08-03T02:23:47;94877.69;;;29.61;35.15
62697;BME280;48761;42.680;23.312;2022-08-03T02:26:16;94872.22;;;29.61;35.12
62697;BME280;48761;42.680;23.312;2022-08-03T02:28:46;94866.75;;;29.61;35.29
62697;BME280;48761;42.680;23.312;2022-08-03T02:31:16;94865.91;;;29.61;34.62
62697;BME280;48761;42.680;23.312;2022-08-03T02:33:52;94866.75;;;29.61;34.90
62697;BME280;48761;42.680;23.312;2022-08-03T02:36:21;94866.75;;;29.61;35.00
62697;BME280;48761;42.680;23.312;2022-08-03T02:38:51;94865.91;;;29.61;35.10
62697;BME280;48761;42.680;23.312;2022-08-03T02:41:23;94866.75;;;29.61;34.78
62697;BME280;48761;42.680;23.312;2022-08-03T02:43:50;94859.63;;;29.60;34.73
62697;BME280;48761;42.680;23.312;2022-08-03T02:46:19;94868.88;;;29.59;35.31
62697;BME280;48761;42.680;23.312;2022-08-03T02:48:47;94865.09;;;29.60;35.31
62697;BME280;48761;42.680;23.312;2022-08-03T02:51:16;94864.47;;;29.58;35.72
62697;BME280;48761;42.680;23.312;2022-08-03T02:53:44;94867.19;;;29.58;35.71
62697;BME280;48761;42.680;23.312;2022-08-03T02:56:11;94867.19;;;29.58;35.48
62697;BME280;48761;42.680;23.312;2022-08-03T02:58:39;94869.94;;;29.58;35.29
62697;BME280;48761;42.680;23.312;2022-08-03T03:01:07;94871.63;;;29.59;35.60
62697;BME280;48761;42.680;23.312;2022-08-03T03:03:34;94878.16;;;29.58;35.71
62697;BME280;48761;42.680;23.312;2022-08-03T03:06:01;94880.28;;;29.56;35.44
62697;BME280;48761;42.680;23.312;2022-08-03T03:08:28;94873.97;;;29.56;35.41
62697;BME280;48761;42.680;23.312;2022-08-03T03:10:56;94882.66;;;29.52;35.49
62697;BME280;48761;42.680;23.312;2022-08-03T03:13:23;94881.56;;;29.53;35.80
62697;BME280;48761;42.680;23.312;2022-08-03T03:15:51;94888.94;;;29.53;35.80
62697;BME280;48761;42.680;23.312;2022-08-03T03:18:16;94890.03;;;29.52;35.88
62697;BME280;48761;42.680;23.312;2022-08-03T03:20:44;94899.28;;;29.51;35.97
62697;BME280;48761;42.680;23.312;2022-08-03T03:23:10;94895.50;;;29.52;35.62
62697;BME280;48761;42.680;23.312;2022-08-03T03:25:37;94899.28;;;29.51;35.38
62697;BME280;48761;42.680;23.312;2022-08-03T03:28:03;94903.91;;;29.50;35.48
62697;BME280;48761;42.680;23.312;2022-08-03T03:30:29;94901.41;;;29.49;35.38
62697;BME280;48761;42.680;23.312;2022-08-03T03:32:56;94904.75;;;29.51;35.26
62697;BME280;48761;42.680;23.312;2022-08-03T03:35:23;94903.56;;;29.47;35.18
62697;BME280;48761;42.680;23.312;2022-08-03T03:37:49;94907.34;;;29.46;35.57
62697;BME280;48761;42.680;23.312;2022-08-03T03:40:15;94906.53;;;29.45;35.73
62697;BME280;48761;42.680;23.312;2022-08-03T03:42:41;94912.81;;;29.46;35.67
62697;BME280;48761;42.680;23.312;2022-08-03T03:45:07;94911.16;;;29.45;36.20
62697;BME280;48761;42.680;23.312;2022-08-03T03:47:34;94911.16;;;29.45;36.41
62697;BME280;48761;42.680;23.312;2022-08-03T03:50:02;94909.47;;;29.43;36.28
62697;BME280;48761;42.680;23.312;2022-08-03T03:52:28;94913.28;;;29.42;36.11
62697;BME280;48761;42.680;23.312;2022-08-03T03:54:54;94920.41;;;29.43;35.76
62697;BME280;48761;42.680;23.312;2022-08-03T03:57:20;94919.56;;;29.43;36.21
62697;BME280;48761;42.680;23.312;2022-08-03T03:59:46;94923.75;;;29.46;36.24
62697;BME280;48761;42.680;23.312;2022-08-03T04:02:11;94918.94;;;29.48;35.71
62697;BME280;48761;42.680;23.312;2022-08-03T04:04:38;94920.59;;;29.49;35.41
62697;BME280;48761;42.680;23.312;2022-08-03T04:07:04;94912.38;;;29.49;35.68
62697;BME280;48761;42.680;23.312;2022-08-03T04:09:30;94914.88;;;29.50;35.71
62697;BME280;48761;42.680;23.312;2022-08-03T04:11:59;94910.25;;;29.51;35.74
62697;BME280;48761;42.680;23.312;2022-08-03T04:14:29;94911.31;;;29.50;35.71
62697;BME280;48761;42.680;23.312;2022-08-03T04:17:01;94912.97;;;29.51;35.61
62697;BME280;48761;42.680;23.312;2022-08-03T04:19:37;94910.84;;;29.53;35.26
62697;BME280;48761;42.680;23.312;2022-08-03T04:22:09;94919.06;;;29.53;35.06
62697;BME280;48761;42.680;23.312;2022-08-03T04:25:03;94920.13;;;29.52;34.59
62697;BME280;48761;42.680;23.312;2022-08-03T04:27:36;94910.84;;;29.53;34.42
62697;BME280;48761;42.680;23.312;2022-08-03T04:30:04;94912.53;;;29.54;33.97
62697;BME280;48761;42.680;23.312;2022-08-03T04:32:31;94915.66;;;29.58;33.72
62697;BME280;48761;42.680;23.312;2022-08-03T04:34:57;94914.38;;;29.60;33.65
62697;BME280;48761;42.680;23.312;2022-08-03T04:37:25;94920.44;;;29.62;33.43
62697;BME280;48761;42.680;23.312;2022-08-03T04:39:55;94915.19;;;29.61;32.17
62697;BME280;48761;42.680;23.312;2022-08-03T04:42:24;94917.47;;;29.64;32.35
62697;BME280;48761;42.680;23.312;2022-08-03T04:44:51;94928.19;;;29.65;31.49
62697;BME280;48761;42.680;23.312;2022-08-03T04:47:18;94931.13;;;29.71;31.95
62697;BME280;48761;42.680;23.312;2022-08-03T04:49:45;94928.16;;;29.72;30.64
62697;BME280;48761;42.680;23.312;2022-08-03T04:52:11;94929.63;;;29.75;31.43
62697;BME280;48761;42.680;23.312;2022-08-03T04:54:41;94929.28;;;29.83;31.79
62697;BME280;48761;42.680;23.312;2022-08-03T04:57:09;94921.88;;;29.91;34.26
62697;BME280;48761;42.680;23.312;2022-08-03T04:59:35;94932.94;;;29.96;35.36
62697;BME280;48761;42.680;23.312;2022-08-03T05:02:01;94941.78;;;29.98;35.63
62697;BME280;48761;42.680;23.312;2022-08-03T05:04:27;94942.16;;;30.02;35.20
62697;BME280;48761;42.680;23.312;2022-08-03T05:06:52;94935.38;;;30.04;35.17
62697;BME280;48761;42.680;23.312;2022-08-03T05:09:18;94943.16;;;30.07;34.65
62697;BME280;48761;42.680;23.312;2022-08-03T05:11:44;94943.28;;;30.13;34.49
62697;BME280;48761;42.680;23.312;2022-08-03T05:14:10;94946.63;;;30.15;34.57
62697;BME280;48761;42.680;23.312;2022-08-03T05:16:36;94953.56;;;30.17;34.37
62697;BME280;48761;42.680;23.312;2022-08-03T05:19:02;94947.63;;;30.20;34.75
62697;BME280;48761;42.680;23.312;2022-08-03T05:21:28;94948.00;;;30.24;34.59
62697;BME280;48761;42.680;23.312;2022-08-03T05:23:54;94951.13;;;30.28;34.74
62697;BME280;48761;42.680;23.312;2022-08-03T05:26:20;94965.19;;;30.31;34.82
62697;BME280;48761;42.680;23.312;2022-08-03T05:28:46;94955.94;;;30.32;34.54
62697;BME280;48761;42.680;23.312;2022-08-03T05:31:12;94959.88;;;30.37;34.90
62697;BME280;48761;42.680;23.312;2022-08-03T05:33:38;94958.38;;;30.41;34.51
62697;BME280;48761;42.680;23.312;2022-08-03T05:36:04;94965.28;;;30.43;34.76
62697;BME280;48761;42.680;23.312;2022-08-03T05:38:31;94963.16;;;30.46;35.11
62697;BME280;48761;42.680;23.312;2022-08-03T05:40:57;94968.63;;;30.46;35.19
62697;BME280;48761;42.680;23.312;2022-08-03T05:43:23;94971.97;;;30.48;35.19
62697;BME280;48761;42.680;23.312;2022-08-03T05:45:49;94971.53;;;30.51;35.58
62697;BME280;48761;42.680;23.312;2022-08-03T05:48:15;94971.28;;;30.52;35.38
62697;BME280;48761;42.680;23.312;2022-08-03T05:50:41;94975.69;;;30.53;35.44
62697;BME280;48761;42.680;23.312;2022-08-03T05:53:07;94975.22;;;30.57;35.56
62697;BME280;48761;42.680;23.312;2022-08-03T05:55:32;94967.63;;;30.59;35.44
62697;BME280;48761;42.680;23.312;2022-08-03T05:57:58;94961.66;;;30.62;35.56
62697;BME280;48761;42.680;23.312;2022-08-03T06:00:24;94969.66;;;30.63;35.24
62697;BME280;48761;42.680;23.312;2022-08-03T06:02:50;94979.34;;;30.66;35.52
62697;BME280;48761;42.680;23.312;2022-08-03T06:05:16;94980.97;;;30.67;35.53
62697;BME280;48761;42.680;23.312;2022-08-03T06:07:42;94978.84;;;30.69;35.44
62697;BME280;48761;42.680;23.312;2022-08-03T06:10:08;94981.81;;;30.68;35.59
62697;BME280;48761;42.680;23.312;2022-08-03T06:12:34;94977.66;;;30.65;36.30
62697;BME280;48761;42.680;23.312;2022-08-03T06:15:00;94973.75;;;30.73;36.74
62697;BME280;48761;42.680;23.312;2022-08-03T06:17:26;94975.69;;;30.84;36.08
62697;BME280;48761;42.680;23.312;2022-08-03T06:19:52;94978.81;;;30.88;35.90
62697;BME280;48761;42.680;23.312;2022-08-03T06:22:18;94976.44;;;30.92;36.52
62697;BME280;48761;42.680;23.312;2022-08-03T06:24:44;94971.34;;;30.95;36.26
62697;BME280;48761;42.680;23.312;2022-08-03T06:27:10;94980.66;;;30.94;36.10
62697;BME280;48761;42.680;23.312;2022-08-03T06:29:36;94978.97;;;30.93;36.05
62697;BME280;48761;42.680;23.312;2022-08-03T06:32:02;94978.50;;;30.96;36.32
62697;BME280;48761;42.680;23.312;2022-08-03T06:34:28;94979.31;;;30.97;36.07
62697;BME280;48761;42.680;23.312;2022-08-03T06:36:54;94979.09;;;30.98;36.13
62697;BME280;48761;42.680;23.312;2022-08-03T06:39:21;94975.91;;;31.02;36.17
62697;BME280;48761;42.680;23.312;2022-08-03T06:41:47;94973.75;;;31.04;36.23
62697;BME280;48761;42.680;23.312;2022-08-03T06:44:13;94977.94;;;31.06;36.31
62697;BME280;48761;42.680;23.312;2022-08-03T06:46:39;94982.31;;;31.07;36.42
62697;BME280;48761;42.680;23.312;2022-08-03T06:49:06;94976.63;;;31.09;36.47
62697;BME280;48761;42.680;23.312;2022-08-03T06:51:32;94969.84;;;31.12;36.55
62697;BME280;48761;42.680;23.312;2022-08-03T06:53:57;94976.13;;;31.12;36.20
62697;BME280;48761;42.680;23.312;2022-08-03T06:56:23;94973.38;;;31.12;36.54
62697;BME280;48761;42.680;23.312;2022-08-03T06:58:49;94974.81;;;31.15;37.00
62697;BME280;48761;42.680;23.312;2022-08-03T07:01:15;94975.44;;;31.17;37.34
62697;BME280;48761;42.680;23.312;2022-08-03T07:03:41;94975.19;;;31.18;37.45
62697;BME280;48761;42.680;23.312;2022-08-03T07:06:07;94970.56;;;31.19;37.63
62697;BME280;48761;42.680;23.312;2022-08-03T07:08:33;94967.56;;;31.20;38.14
62697;BME280;48761;42.680;23.312;2022-08-03T07:10:58;94966.50;;;31.21;38.23
62697;BME280;48761;42.680;23.312;2022-08-03T07:13:24;94969.25;;;31.21;38.05
62697;BME280;48761;42.680;23.312;2022-08-03T07:15:50;94970.91;;;31.23;38.19
62697;BME280;48761;42.680;23.312;2022-08-03T07:18:16;94966.63;;;31.27;38.46
62697;BME280;48761;42.680;23.312;2022-08-03T07:20:42;94969.97;;;31.29;38.04
62697;BME280;48761;42.680;23.312;2022-08-03T07:23:08;94970.31;;;31.32;38.02
62697;BME280;48761;42.680;23.312;2022-08-03T07:25:34;94982.13;;;31.33;38.28
62697;BME280;48761;42.680;23.312;2022-08-03T07:28:00;94978.34;;;31.34;38.13
62697;BME280;48761;42.680;23.312;2022-08-03T07:30:26;94974.03;;;31.38;39.28
62697;BME280;48761;42.680;23.312;2022-08-03T07:32:52;94980.13;;;31.40;38.68
62697;BME280;48761;42.680;23.312;2022-08-03T07:35:18;94972.72;;;31.41;38.16
62697;BME280;48761;42.680;23.312;2022-08-03T07:37:44;94973.91;;;31.45;38.23
62697;BME280;48761;42.680;23.312;2022-08-03T07:40:10;94985.97;;;31.44;38.42
62697;BME280;48761;42.680;23.312;2022-08-03T07:42:35;94975.84;;;31.44;38.30
62697;BME280;48761;42.680;23.312;2022-08-03T07:45:01;94980.72;;;31.42;38.29
62697;BME280;48761;42.680;23.312;2022-08-03T07:47:29;94980.25;;;31.46;38.41
62697;BME280;48761;42.680;23.312;2022-08-03T07:49:56;94979.19;;;31.47;38.75
62697;BME280;48761;42.680;23.312;2022-08-03T07:52:22;94982.09;;;31.52;38.96
62697;BME280;48761;42.680;23.312;2022-08-03T07:54:48;94976.34;;;31.53;38.80
62697;BME280;48761;42.680;23.312;2022-08-03T07:57:14;94982.78;;;31.59;38.61
62697;BME280;48761;42.680;23.312;2022-08-03T07:59:40;94974.56;;;31.59;38.57
62697;BME280;48761;42.680;23.312;2022-08-03T08:02:06;94983.38;;;31.61;38.34
62697;BME280;48761;42.680;23.312;2022-08-03T08:04:32;94977.06;;;31.61;38.35
62697;BME280;48761;42.680;23.312;2022-08-03T08:06:58;94982.53;;;31.61;38.52
62697;BME280;48761;42.680;23.312;2022-08-03T08:09:23;94988.03;;;31.61;38.17
62697;BME280;48761;42.680;23.312;2022-08-03T08:11:49;94978.50;;;31.63;37.87
62697;BME280;48761;42.680;23.312;2022-08-03T08:14:15;94986.72;;;31.63;37.99
62697;BME280;48761;42.680;23.312;2022-08-03T08:16:41;94980.41;;;31.63;37.11
62697;BME280;48761;42.680;23.312;2022-08-03T08:19:07;94984.56;;;31.65;37.48
62697;BME280;48761;42.680;23.312;2022-08-03T08:21:33;94993.78;;;31.71;37.85
62697;BME280;48761;42.680;23.312;2022-08-03T08:23:59;94987.44;;;31.71;37.15
62697;BME280;48761;42.680;23.312;2022-08-03T08:26:24;94992.47;;;31.74;37.34
62697;BME280;48761;42.680;23.312;2022-08-03T08:28:50;94981.13;;;31.70;35.93
62697;BME280;48761;42.680;23.312;2022-08-03T08:31:16;94984.81;;;31.76;34.86
62697;BME280;48761;42.680;23.312;2022-08-03T08:33:42;94975.50;;;31.77;35.31
62697;BME280;48761;42.680;23.312;2022-08-03T08:36:08;94977.16;;;31.78;35.09
62697;BME280;48761;42.680;23.312;2022-08-03T08:38:34;94984.59;;;31.77;35.37
62697;BME280;48761;42.680;23.312;2022-08-03T08:41:00;94979.44;;;31.81;36.68
62697;BME280;48761;42.680;23.312;2022-08-03T08:43:27;94978.38;;;31.82;36.36
62697;BME280;48761;42.680;23.312;2022-08-03T08:45:53;94979.44;;;31.81;36.54
62697;BME280;48761;42.680;23.312;2022-08-03T08:48:23;94978.84;;;31.79;36.73
62697;BME280;48761;42.680;23.312;2022-08-03T08:50:57;94972.75;;;31.77;36.76
62697;BME280;48761;42.680;23.312;2022-08-03T08:53:28;94967.50;;;31.75;37.24
62697;BME280;48761;42.680;23.312;2022-08-03T08:55:57;94975.13;;;31.73;36.96
62697;BME280;48761;42.680;23.312;2022-08-03T08:58:25;94966.06;;;31.73;37.11
62697;BME280;48761;42.680;23.312;2022-08-03T09:00:52;94962.50;;;31.72;37.64
62697;BME280;48761;42.680;23.312;2022-08-03T09:03:18;94965.00;;;31.74;37.88
62697;BME280;48761;42.680;23.312;2022-08-03T09:05:45;94968.34;;;31.76;37.89
62697;BME280;48761;42.680;23.312;2022-08-03T09:08:10;94958.56;;;31.80;37.69
62697;BME280;48761;42.680;23.312;2022-08-03T09:10:36;94962.97;;;31.81;37.36
62697;BME280;48761;42.680;23.312;2022-08-03T09:13:02;94954.72;;;31.81;37.52
62697;BME280;48761;42.680;23.312;2022-08-03T09:15:31;94958.56;;;31.80;37.80
62697;BME280;48761;42.680;23.312;2022-08-03T09:17:59;94967.03;;;31.79;37.49
62697;BME280;48761;42.680;23.312;2022-08-03T09:20:27;94965.13;;;31.79;37.89
62697;BME280;48761;42.680;23.312;2022-08-03T09:22:59;94961.31;;;31.80;37.46
62697;BME280;48761;42.680;23.312;2022-08-03T09:28:15;94955.56;;;31.82;37.83
62697;BME280;48761;42.680;23.312;2022-08-03T09:30:57;94964.88;;;31.81;37.98
62697;BME280;48761;42.680;23.312;2022-08-03T09:33:23;94951.00;;;31.75;38.04
62697;BME280;48761;42.680;23.312;2022-08-03T09:35:49;94953.41;;;31.84;38.46
62697;BME280;48761;42.680;23.312;2022-08-03T09:38:21;94959.59;;;31.91;40.08
62697;BME280;48761;42.680;23.312;2022-08-03T09:40:47;94952.78;;;31.94;38.81
62697;BME280;48761;42.680;23.312;2022-08-03T09:43:13;94947.28;;;31.94;38.32
62697;BME280;48761;42.680;23.312;2022-08-03T09:45:39;94952.78;;;31.94;38.30
62697;BME280;48761;42.680;23.312;2022-08-03T09:50:54;94943.38;;;31.90;38.33
62697;BME280;48761;42.680;23.312;2022-08-03T09:53:21;94945.28;;;31.89;38.40
62697;BME280;48761;42.680;23.312;2022-08-03T09:55:51;94950.50;;;31.91;38.14
62697;BME280;48761;42.680;23.312;2022-08-03T09:58:19;94944.22;;;31.90;38.34
62697;BME280;48761;42.680;23.312;2022-08-03T10:00:54;94942.28;;;31.91;38.46
62697;BME280;48761;42.680;23.312;2022-08-03T10:03:20;94946.13;;;31.90;38.69
62697;BME280;48761;42.680;23.312;2022-08-03T10:05:46;94945.97;;;31.96;39.00
62697;BME280;48761;42.680;23.312;2022-08-03T10:08:16;94943.00;;;31.98;38.95
62697;BME280;48761;42.680;23.312;2022-08-03T10:10:44;94940.84;;;32.00;38.94
62697;BME280;48761;42.680;23.312;2022-08-03T10:13:12;94936.41;;;31.99;38.71
62697;BME280;48761;42.680;23.312;2022-08-03T10:15:39;94934.13;;;31.96;38.18
62697;BME280;48761;42.680;23.312;2022-08-03T10:18:05;94935.81;;;31.97;39.01
62697;BME280;48761;42.680;23.312;2022-08-03T10:20:42;94929.00;;;31.99;38.38
62697;BME280;48761;42.680;23.312;2022-08-03T10:23:09;94927.09;;;32.00;38.56
62697;BME280;48761;42.680;23.312;2022-08-03T10:25:37;94931.50;;;32.01;38.31
62697;BME280;48761;42.680;23.312;2022-08-03T10:28:03;94922.69;;;31.99;38.33
62697;BME280;48761;42.680;23.312;2022-08-03T10:30:31;94917.19;;;31.99;38.53
62697;BME280;48761;42.680;23.312;2022-08-03T10:33:02;94924.34;;;32.00;38.48
62697;BME280;48761;42.680;23.312;2022-08-03T10:35:29;94925.31;;;31.94;38.57
62697;BME280;48761;42.680;23.312;2022-08-03T10:38:01;94915.53;;;31.98;38.68
62697;BME280;48761;42.680;23.312;2022-08-03T10:40:31;94929.84;;;32.00;38.40
62697;BME280;48761;42.680;23.312;2022-08-03T10:43:11;94915.03;;;32.01;38.50
62697;BME280;48761;42.680;23.312;2022-08-03T10:45:40;94924.34;;;32.00;38.51
62697;BME280;48761;42.680;23.312;2022-08-03T10:48:07;94922.69;;;31.99;38.17
62697;BME280;48761;42.680;23.312;2022-08-03T10:50:33;94919.34;;;31.97;36.85
62697;BME280;48761;42.680;23.312;2022-08-03T10:53:04;94921.03;;;31.98;34.97
62697;BME280;48761;42.680;23.312;2022-08-03T10:55:37;94927.09;;;32.00;36.12
62697;BME280;48761;42.680;23.312;2022-08-03T10:58:03;94931.03;;;32.04;36.87
62697;BME280;48761;42.680;23.312;2022-08-03T11:00:47;94917.88;;;32.06;36.66
62697;BME280;48761;42.680;23.312;2022-08-03T11:03:14;94921.72;;;32.05;36.85
62697;BME280;48761;42.680;23.312;2022-08-03T11:05:45;94921.72;;;32.05;37.33
62697;BME280;48761;42.680;23.312;2022-08-03T11:08:21;94915.59;;;32.03;37.45
62697;BME280;48761;42.680;23.312;2022-08-03T11:10:49;94907.38;;;32.03;37.38
62697;BME280;48761;42.680;23.312;2022-08-03T11:13:18;94915.38;;;32.05;37.88
62697;BME280;48761;42.680;23.312;2022-08-03T11:15:47;94903.56;;;32.04;37.50
62697;BME280;48761;42.680;23.312;2022-08-03T11:18:14;94900.22;;;32.02;37.89
62697;BME280;48761;42.680;23.312;2022-08-03T11:20:50;94893.41;;;32.05;37.83
62697;BME280;48761;42.680;23.312;2022-08-03T11:23:19;94884.31;;;32.04;38.00
62697;BME280;48761;42.680;23.312;2022-08-03T11:28:41;94888.22;;;32.08;38.12
62697;BME280;48761;42.680;23.312;2022-08-03T11:34:07;94883.72;;;32.02;32.01
62697;BME280;48761;42.680;23.312;2022-08-03T11:39:40;94876.66;;;32.06;36.86
62697;BME280;48761;42.680;23.312;2022-08-03T11:45:00;94879.53;;;32.12;36.58
62697;BME280;48761;42.680;23.312;2022-08-03T11:47:27;94880.97;;;32.14;36.63
62697;BME280;48761;42.680;23.312;2022-08-03T11:49:57;94874.16;;;32.17;36.86
62697;BME280;48761;42.680;23.312;2022-08-03T11:52:23;94879.63;;;32.17;36.82
62697;BME280;48761;42.680;23.312;2022-08-03T11:54:51;94879.63;;;32.17;36.98
62697;BME280;48761;42.680;23.312;2022-08-03T11:57:37;94875.13;;;32.10;36.53
62697;BME280;48761;42.680;23.312;2022-08-03T12:00:27;94875.38;;;32.09;36.30
62697;BME280;48761;42.680;23.312;2022-08-03T12:08:03;94866.16;;;32.03;36.58
62697;BME280;48761;42.680;23.312;2022-08-03T12:10:29;94863.16;;;32.05;37.26
62697;BME280;48761;42.680;23.312;2022-08-03T12:12:57;94868.91;;;32.03;37.39
62697;BME280;48761;42.680;23.312;2022-08-03T12:15:28;94860.56;;;31.98;37.35
62697;BME280;48761;42.680;23.312;2022-08-03T12:17:56;94862.72;;;31.96;37.12
62697;BME280;48761;42.680;23.312;2022-08-03T12:20:24;94861.53;;;31.92;36.42
62697;BME280;48761;42.680;23.312;2022-08-03T12:22:51;94865.97;;;31.93;37.37
62697;BME280;48761;42.680;23.312;2022-08-03T12:25:25;94863.22;;;31.93;37.26
62697;BME280;48761;42.680;23.312;2022-08-03T12:27:52;94856.53;;;31.88;37.10
62697;BME280;48761;42.680;23.312;2022-08-03T12:30:18;94855.94;;;31.86;37.42
62697;BME280;48761;42.680;23.312;2022-08-03T12:32:45;94860.84;;;31.84;37.06
62697;BME280;48761;42.680;23.312;2022-08-03T12:35:21;94856.66;;;31.82;37.14
62697;BME280;48761;42.680;23.312;2022-08-03T12:37:48;94860.16;;;31.77;37.29
62697;BME280;48761;42.680;23.312;2022-08-03T12:40:14;94852.50;;;31.79;37.20
62697;BME280;48761;42.680;23.312;2022-08-03T12:42:39;94851.31;;;31.75;36.68
62697;BME280;48761;42.680;23.312;2022-08-03T12:45:31;94846.31;;;31.72;37.01
62697;BME280;48761;42.680;23.312;2022-08-03T12:47:59;94849.53;;;31.69;36.23
62697;BME280;48761;42.680;23.312;2022-08-03T12:50:33;94853.97;;;31.70;35.53
62697;BME280;48761;42.680;23.312;2022-08-03T12:53:05;94841.06;;;31.70;35.23
62697;BME280;48761;42.680;23.312;2022-08-03T12:55:32;94836.16;;;31.72;36.32
62697;BME280;48761;42.680;23.312;2022-08-03T12:58:05;94833.16;;;31.74;35.64
62697;BME280;48761;42.680;23.312;2022-08-03T13:00:31;94839.25;;;31.76;34.78
62697;BME280;48761;42.680;23.312;2022-08-03T13:02:58;94832.09;;;31.75;35.74
62697;BME280;48761;42.680;23.312;2022-08-03T13:05:24;94832.09;;;31.75;35.65
62697;BME280;48761;42.680;23.312;2022-08-03T13:07:50;94832.81;;;31.70;34.38
62697;BME280;48761;42.680;23.312;2022-08-03T13:10:30;94825.97;;;31.73;34.87
62697;BME280;48761;42.680;23.312;2022-08-03T13:12:57;94828.97;;;31.71;34.06
62697;BME280;48761;42.680;23.312;2022-08-03T13:15:23;94827.09;;;31.72;34.56
62697;BME280;48761;42.680;23.312;2022-08-03T13:17:49;94830.66;;;31.72;33.76
62697;BME280;48761;42.680;23.312;2022-08-03T13:20:15;94823.25;;;31.73;33.52
62697;BME280;48761;42.680;23.312;2022-08-03T13:22:40;94825.97;;;31.73;35.16
62697;BME280;48761;42.680;23.312;2022-08-03T13:25:07;94825.97;;;31.73;34.60